sensor_id;sensor_type;location;lat;lon;timestamp;P1;durP1;ratioP1;P2;durP2;ratioP2
76332;SDS011;71254;53.010;6.508;2023-10-13T00:01:42;83.82;;;39.78;;
76332;SDS011;71254;53.010;6.508;2023-10-13T00:04:08;75.43;;;39.25;;
76332;SDS011;71254;53.010;6.508;2023-10-13T00:06:33;83.38;;;39.95;;
76332;SDS011;71254;53.010;6.508;2023-10-13T00:08:59;62.83;;;34.55;;
76332;SDS011;71254;53.010;6.508;2023-10-13T00:11:25;61.03;;;34.53;;
76332;SDS011;71254;53.010;6.508;2023-10-13T00:13:52;59.00;;;32.88;;
76332;SDS011;71254;53.010;6.508;2023-10-13T00:16:19;65.20;;;34.58;;
76332;SDS011;71254;53.010;6.508;2023-10-13T00:18:46;75.90;;;36.60;;
76332;SDS011;71254;53.010;6.508;2023-10-13T00:21:19;76.38;;;38.67;;
76332;SDS011;71254;53.010;6.508;2023-10-13T00:23:56;69.45;;;34.30;;
76332;SDS011;71254;53.010;6.508;2023-10-13T00:26:23;55.05;;;30.77;;
76332;SDS011;71254;53.010;6.508;2023-10-13T00:28:53;54.05;;;31.30;;
76332;SDS011;71254;53.010;6.508;2023-10-13T00:31:31;59.77;;;33.17;;
76332;SDS011;71254;53.010;6.508;2023-10-13T00:34:01;54.55;;;31.42;;
76332;SDS011;71254;53.010;6.508;2023-10-13T00:36:36;53.30;;;29.55;;
76332;SDS011;71254;53.010;6.508;2023-10-13T00:39:03;48.85;;;29.30;;
76332;SDS011;71254;53.010;6.508;2023-10-13T00:41:29;58.17;;;32.20;;
76332;SDS011;71254;53.010;6.508;2023-10-13T00:44:30;50.92;;;30.08;;
76332;SDS011;71254;53.010;6.508;2023-10-13T00:47:06;47.08;;;27.63;;
76332;SDS011;71254;53.010;6.508;2023-10-13T00:49:35;49.75;;;29.65;;
76332;SDS011;71254;53.010;6.508;2023-10-13T00:52:05;43.22;;;27.00;;
76332;SDS011;71254;53.010;6.508;2023-10-13T00:54:32;44.22;;;27.92;;
76332;SDS011;71254;53.010;6.508;2023-10-13T00:57:01;46.95;;;27.88;;
76332;SDS011;71254;53.010;6.508;2023-10-13T00:59:36;43.33;;;26.70;;
76332;SDS011;71254;53.010;6.508;2023-10-13T01:02:02;47.35;;;27.25;;
76332;SDS011;71254;53.010;6.508;2023-10-13T01:04:48;47.15;;;27.98;;
76332;SDS011;71254;53.010;6.508;2023-10-13T01:07:15;49.17;;;27.80;;
76332;SDS011;71254;53.010;6.508;2023-10-13T01:09:47;42.42;;;26.30;;
76332;SDS011;71254;53.010;6.508;2023-10-13T01:12:13;44.97;;;26.08;;
76332;SDS011;71254;53.010;6.508;2023-10-13T01:14:39;42.53;;;26.38;;
76332;SDS011;71254;53.010;6.508;2023-10-13T01:17:05;39.22;;;24.17;;
76332;SDS011;71254;53.010;6.508;2023-10-13T01:19:35;44.53;;;26.00;;
76332;SDS011;71254;53.010;6.508;2023-10-13T01:22:07;44.35;;;26.10;;
76332;SDS011;71254;53.010;6.508;2023-10-13T01:24:33;38.65;;;23.75;;
76332;SDS011;71254;53.010;6.508;2023-10-13T01:27:05;34.50;;;23.30;;
76332;SDS011;71254;53.010;6.508;2023-10-13T01:29:45;36.17;;;22.83;;
76332;SDS011;71254;53.010;6.508;2023-10-13T01:32:16;34.47;;;22.30;;
76332;SDS011;71254;53.010;6.508;2023-10-13T01:34:44;39.65;;;24.17;;
76332;SDS011;71254;53.010;6.508;2023-10-13T01:37:13;37.22;;;22.67;;
76332;SDS011;71254;53.010;6.508;2023-10-13T01:39:40;39.45;;;23.58;;
76332;SDS011;71254;53.010;6.508;2023-10-13T01:42:06;40.42;;;24.45;;
76332;SDS011;71254;53.010;6.508;2023-10-13T01:44:32;43.28;;;25.42;;
76332;SDS011;71254;53.010;6.508;2023-10-13T01:46:58;39.10;;;23.98;;
76332;SDS011;71254;53.010;6.508;2023-10-13T01:49:25;42.45;;;25.73;;
76332;SDS011;71254;53.010;6.508;2023-10-13T01:51:51;42.90;;;24.45;;
76332;SDS011;71254;53.010;6.508;2023-10-13T01:54:17;46.60;;;26.95;;
76332;SDS011;71254;53.010;6.508;2023-10-13T01:56:42;42.03;;;25.10;;
76332;SDS011;71254;53.010;6.508;2023-10-13T01:59:09;48.83;;;27.55;;
76332;SDS011;71254;53.010;6.508;2023-10-13T02:01:36;42.85;;;25.63;;
76332;SDS011;71254;53.010;6.508;2023-10-13T02:04:01;43.47;;;26.17;;
76332;SDS011;71254;53.010;6.508;2023-10-13T02:06:31;56.60;;;29.30;;
76332;SDS011;71254;53.010;6.508;2023-10-13T02:09:04;42.85;;;26.10;;
76332;SDS011;71254;53.010;6.508;2023-10-13T02:11:37;43.28;;;25.75;;
76332;SDS011;71254;53.010;6.508;2023-10-13T02:14:04;47.58;;;26.45;;
76332;SDS011;71254;53.010;6.508;2023-10-13T02:16:30;49.55;;;27.10;;
76332;SDS011;71254;53.010;6.508;2023-10-13T02:18:56;54.55;;;28.77;;
76332;SDS011;71254;53.010;6.508;2023-10-13T02:21:33;44.85;;;26.10;;
76332;SDS011;71254;53.010;6.508;2023-10-13T02:24:07;52.20;;;27.05;;
76332;SDS011;71254;53.010;6.508;2023-10-13T02:26:43;44.17;;;25.92;;
76332;SDS011;71254;53.010;6.508;2023-10-13T02:29:09;48.65;;;26.90;;
76332;SDS011;71254;53.010;6.508;2023-10-13T02:31:42;42.35;;;26.38;;
76332;SDS011;71254;53.010;6.508;2023-10-13T02:34:18;46.67;;;28.23;;
76332;SDS011;71254;53.010;6.508;2023-10-13T02:36:44;45.20;;;26.45;;
76332;SDS011;71254;53.010;6.508;2023-10-13T02:39:13;45.47;;;27.70;;
76332;SDS011;71254;53.010;6.508;2023-10-13T02:41:49;40.00;;;26.58;;
76332;SDS011;71254;53.010;6.508;2023-10-13T02:44:15;45.72;;;28.15;;
76332;SDS011;71254;53.010;6.508;2023-10-13T02:46:51;46.55;;;28.33;;
76332;SDS011;71254;53.010;6.508;2023-10-13T02:49:20;44.47;;;28.00;;
76332;SDS011;71254;53.010;6.508;2023-10-13T02:52:02;41.20;;;26.77;;
76332;SDS011;71254;53.010;6.508;2023-10-13T02:54:33;42.75;;;26.83;;
76332;SDS011;71254;53.010;6.508;2023-10-13T02:57:04;35.10;;;25.17;;
76332;SDS011;71254;53.010;6.508;2023-10-13T02:59:31;41.95;;;26.95;;
76332;SDS011;71254;53.010;6.508;2023-10-13T03:02:05;40.17;;;25.90;;
76332;SDS011;71254;53.010;6.508;2023-10-13T03:04:52;37.35;;;23.90;;
76332;SDS011;71254;53.010;6.508;2023-10-13T03:07:29;35.83;;;23.30;;
76332;SDS011;71254;53.010;6.508;2023-10-13T03:09:56;30.63;;;20.02;;
76332;SDS011;71254;53.010;6.508;2023-10-13T03:12:25;29.90;;;20.88;;
76332;SDS011;71254;53.010;6.508;2023-10-13T03:14:51;27.92;;;19.58;;
76332;SDS011;71254;53.010;6.508;2023-10-13T03:17:20;28.52;;;18.33;;
76332;SDS011;71254;53.010;6.508;2023-10-13T03:19:58;32.08;;;19.65;;
76332;SDS011;71254;53.010;6.508;2023-10-13T03:22:25;34.65;;;22.02;;
76332;SDS011;71254;53.010;6.508;2023-10-13T03:24:57;29.95;;;21.20;;
76332;SDS011;71254;53.010;6.508;2023-10-13T03:27:31;33.85;;;22.48;;
76332;SDS011;71254;53.010;6.508;2023-10-13T03:30:13;38.95;;;23.73;;
76332;SDS011;71254;53.010;6.508;2023-10-13T03:32:40;38.03;;;22.75;;
76332;SDS011;71254;53.010;6.508;2023-10-13T03:35:08;37.03;;;22.75;;
76332;SDS011;71254;53.010;6.508;2023-10-13T03:37:53;34.03;;;21.80;;
76332;SDS011;71254;53.010;6.508;2023-10-13T03:40:20;37.13;;;22.00;;
76332;SDS011;71254;53.010;6.508;2023-10-13T03:42:46;34.92;;;20.95;;
76332;SDS011;71254;53.010;6.508;2023-10-13T03:45:25;32.63;;;22.30;;
76332;SDS011;71254;53.010;6.508;2023-10-13T03:47:52;37.33;;;22.17;;
76332;SDS011;71254;53.010;6.508;2023-10-13T03:50:18;31.27;;;20.65;;
76332;SDS011;71254;53.010;6.508;2023-10-13T03:52:57;39.22;;;22.23;;
76332;SDS011;71254;53.010;6.508;2023-10-13T03:55:23;37.67;;;22.70;;
76332;SDS011;71254;53.010;6.508;2023-10-13T03:57:58;30.05;;;19.90;;
76332;SDS011;71254;53.010;6.508;2023-10-13T04:00:25;28.77;;;19.45;;
76332;SDS011;71254;53.010;6.508;2023-10-13T04:02:52;31.05;;;19.48;;
76332;SDS011;71254;53.010;6.508;2023-10-13T04:05:28;29.30;;;18.73;;
76332;SDS011;71254;53.010;6.508;2023-10-13T04:08:09;32.25;;;19.58;;
76332;SDS011;71254;53.010;6.508;2023-10-13T04:10:53;33.13;;;19.52;;
76332;SDS011;71254;53.010;6.508;2023-10-13T04:13:20;28.33;;;19.38;;
76332;SDS011;71254;53.010;6.508;2023-10-13T04:16:04;29.80;;;19.65;;
76332;SDS011;71254;53.010;6.508;2023-10-13T04:18:51;30.77;;;21.00;;
76332;SDS011;71254;53.010;6.508;2023-10-13T04:21:19;33.70;;;20.65;;
76332;SDS011;71254;53.010;6.508;2023-10-13T04:24:07;29.15;;;19.92;;
76332;SDS011;71254;53.010;6.508;2023-10-13T04:26:43;28.23;;;19.15;;
76332;SDS011;71254;53.010;6.508;2023-10-13T04:29:35;36.05;;;21.30;;
76332;SDS011;71254;53.010;6.508;2023-10-13T04:32:13;35.30;;;21.55;;
76332;SDS011;71254;53.010;6.508;2023-10-13T04:34:58;36.35;;;20.90;;
76332;SDS011;71254;53.010;6.508;2023-10-13T04:37:35;33.70;;;20.65;;
76332;SDS011;71254;53.010;6.508;2023-10-13T04:40:16;33.47;;;20.17;;
76332;SDS011;71254;53.010;6.508;2023-10-13T04:42:44;34.10;;;20.37;;
76332;SDS011;71254;53.010;6.508;2023-10-13T04:45:18;34.35;;;20.08;;
76332;SDS011;71254;53.010;6.508;2023-10-13T04:47:56;32.70;;;19.80;;
76332;SDS011;71254;53.010;6.508;2023-10-13T04:50:38;36.85;;;20.08;;
76332;SDS011;71254;53.010;6.508;2023-10-13T04:53:10;36.47;;;20.88;;
76332;SDS011;71254;53.010;6.508;2023-10-13T04:56:10;28.73;;;18.60;;
76332;SDS011;71254;53.010;6.508;2023-10-13T04:58:55;34.22;;;19.30;;
76332;SDS011;71254;53.010;6.508;2023-10-13T05:01:39;34.60;;;19.65;;
76332;SDS011;71254;53.010;6.508;2023-10-13T05:04:24;37.33;;;20.55;;
76332;SDS011;71254;53.010;6.508;2023-10-13T05:07:04;29.92;;;17.92;;
76332;SDS011;71254;53.010;6.508;2023-10-13T05:09:49;33.13;;;19.08;;
76332;SDS011;71254;53.010;6.508;2023-10-13T05:12:33;30.52;;;18.60;;
76332;SDS011;71254;53.010;6.508;2023-10-13T05:15:18;31.05;;;17.90;;
76332;SDS011;71254;53.010;6.508;2023-10-13T05:18:02;27.45;;;17.73;;
76332;SDS011;71254;53.010;6.508;2023-10-13T05:20:47;26.23;;;16.40;;
76332;SDS011;71254;53.010;6.508;2023-10-13T05:23:31;25.65;;;15.77;;
76332;SDS011;71254;53.010;6.508;2023-10-13T05:26:15;23.23;;;14.75;;
76332;SDS011;71254;53.010;6.508;2023-10-13T05:28:59;21.95;;;14.23;;
76332;SDS011;71254;53.010;6.508;2023-10-13T05:31:44;21.00;;;14.15;;
76332;SDS011;71254;53.010;6.508;2023-10-13T05:34:28;19.65;;;13.82;;
76332;SDS011;71254;53.010;6.508;2023-10-13T05:37:23;23.08;;;13.50;;
76332;SDS011;71254;53.010;6.508;2023-10-13T05:40:07;18.05;;;12.63;;
76332;SDS011;71254;53.010;6.508;2023-10-13T05:42:52;17.80;;;11.55;;
76332;SDS011;71254;53.010;6.508;2023-10-13T05:45:37;15.00;;;11.50;;
76332;SDS011;71254;53.010;6.508;2023-10-13T05:48:26;14.02;;;9.80;;
76332;SDS011;71254;53.010;6.508;2023-10-13T05:51:11;11.85;;;8.82;;
76332;SDS011;71254;53.010;6.508;2023-10-13T05:54:00;12.95;;;10.30;;
76332;SDS011;71254;53.010;6.508;2023-10-13T05:56:38;16.15;;;11.80;;
76332;SDS011;71254;53.010;6.508;2023-10-13T05:59:29;16.52;;;11.77;;
76332;SDS011;71254;53.010;6.508;2023-10-13T06:02:15;18.55;;;11.82;;
76332;SDS011;71254;53.010;6.508;2023-10-13T06:05:06;17.20;;;11.68;;
76332;SDS011;71254;53.010;6.508;2023-10-13T06:07:52;14.60;;;10.85;;
76332;SDS011;71254;53.010;6.508;2023-10-13T06:10:36;14.30;;;10.82;;
76332;SDS011;71254;53.010;6.508;2023-10-13T06:13:21;14.90;;;10.23;;
76332;SDS011;71254;53.010;6.508;2023-10-13T06:16:06;16.05;;;10.40;;
76332;SDS011;71254;53.010;6.508;2023-10-13T06:18:51;13.60;;;10.48;;
76332;SDS011;71254;53.010;6.508;2023-10-13T06:21:35;15.15;;;9.85;;
76332;SDS011;71254;53.010;6.508;2023-10-13T06:24:19;12.95;;;9.38;;
76332;SDS011;71254;53.010;6.508;2023-10-13T06:27:03;13.35;;;8.93;;
76332;SDS011;71254;53.010;6.508;2023-10-13T06:29:47;10.18;;;8.13;;
76332;SDS011;71254;53.010;6.508;2023-10-13T06:32:13;11.63;;;8.25;;
76332;SDS011;71254;53.010;6.508;2023-10-13T06:34:41;9.70;;;7.50;;
76332;SDS011;71254;53.010;6.508;2023-10-13T06:37:13;10.50;;;7.80;;
76332;SDS011;71254;53.010;6.508;2023-10-13T06:39:52;9.70;;;7.70;;
76332;SDS011;71254;53.010;6.508;2023-10-13T06:42:24;10.93;;;8.00;;
76332;SDS011;71254;53.010;6.508;2023-10-13T06:44:55;10.95;;;9.02;;
76332;SDS011;71254;53.010;6.508;2023-10-13T06:47:21;13.55;;;9.02;;
76332;SDS011;71254;53.010;6.508;2023-10-13T06:49:47;11.48;;;8.48;;
76332;SDS011;71254;53.010;6.508;2023-10-13T06:52:19;9.40;;;7.55;;
76332;SDS011;71254;53.010;6.508;2023-10-13T06:54:49;11.20;;;6.78;;
76332;SDS011;71254;53.010;6.508;2023-10-13T06:57:15;10.80;;;7.05;;
76332;SDS011;71254;53.010;6.508;2023-10-13T07:02:14;7.30;;;5.78;;
76332;SDS011;71254;53.010;6.508;2023-10-13T07:04:49;8.88;;;6.55;;
76332;SDS011;71254;53.010;6.508;2023-10-13T07:07:38;9.57;;;8.32;;
76332;SDS011;71254;53.010;6.508;2023-10-13T07:10:08;7.68;;;5.60;;
76332;SDS011;71254;53.010;6.508;2023-10-13T07:12:34;9.05;;;6.18;;
76332;SDS011;71254;53.010;6.508;2023-10-13T07:15:00;8.15;;;5.45;;
76332;SDS011;71254;53.010;6.508;2023-10-13T07:17:49;9.68;;;4.93;;
76332;SDS011;71254;53.010;6.508;2023-10-13T07:20:21;6.50;;;4.90;;
76332;SDS011;71254;53.010;6.508;2023-10-13T07:22:50;6.40;;;5.57;;
76332;SDS011;71254;53.010;6.508;2023-10-13T07:25:32;8.38;;;5.78;;
76332;SDS011;71254;53.010;6.508;2023-10-13T07:27:59;7.82;;;5.50;;
76332;SDS011;71254;53.010;6.508;2023-10-13T07:30:26;10.02;;;6.30;;
76332;SDS011;71254;53.010;6.508;2023-10-13T07:32:52;7.13;;;6.18;;
76332;SDS011;71254;53.010;6.508;2023-10-13T07:35:20;10.70;;;6.38;;
76332;SDS011;71254;53.010;6.508;2023-10-13T07:37:51;10.45;;;6.57;;
76332;SDS011;71254;53.010;6.508;2023-10-13T07:40:19;11.85;;;5.90;;
76332;SDS011;71254;53.010;6.508;2023-10-13T07:42:51;13.25;;;7.07;;
76332;SDS011;71254;53.010;6.508;2023-10-13T07:45:17;11.20;;;6.90;;
76332;SDS011;71254;53.010;6.508;2023-10-13T07:47:51;11.45;;;7.35;;
76332;SDS011;71254;53.010;6.508;2023-10-13T07:50:16;15.80;;;7.03;;
76332;SDS011;71254;53.010;6.508;2023-10-13T07:52:50;9.88;;;7.13;;
76332;SDS011;71254;53.010;6.508;2023-10-13T07:55:24;14.77;;;7.30;;
76332;SDS011;71254;53.010;6.508;2023-10-13T07:57:49;13.05;;;7.10;;
76332;SDS011;71254;53.010;6.508;2023-10-13T08:00:21;14.63;;;7.97;;
76332;SDS011;71254;53.010;6.508;2023-10-13T08:03:12;15.18;;;7.90;;
76332;SDS011;71254;53.010;6.508;2023-10-13T08:05:43;15.18;;;8.07;;
76332;SDS011;71254;53.010;6.508;2023-10-13T08:08:28;15.10;;;7.88;;
76332;SDS011;71254;53.010;6.508;2023-10-13T08:11:02;15.25;;;7.50;;
76332;SDS011;71254;53.010;6.508;2023-10-13T08:13:54;12.65;;;7.78;;
76332;SDS011;71254;53.010;6.508;2023-10-13T08:16:36;14.82;;;8.25;;
76332;SDS011;71254;53.010;6.508;2023-10-13T08:19:21;12.38;;;8.15;;
76332;SDS011;71254;53.010;6.508;2023-10-13T08:22:04;12.73;;;7.65;;
76332;SDS011;71254;53.010;6.508;2023-10-13T08:24:46;13.57;;;8.23;;
76332;SDS011;71254;53.010;6.508;2023-10-13T08:27:13;13.05;;;8.38;;
76332;SDS011;71254;53.010;6.508;2023-10-13T08:29:43;15.25;;;8.88;;
76332;SDS011;71254;53.010;6.508;2023-10-13T08:32:23;14.23;;;8.30;;
76332;SDS011;71254;53.010;6.508;2023-10-13T08:34:56;18.50;;;8.60;;
76332;SDS011;71254;53.010;6.508;2023-10-13T08:37:23;11.75;;;8.70;;
76332;SDS011;71254;53.010;6.508;2023-10-13T08:39:50;14.68;;;8.15;;
76332;SDS011;71254;53.010;6.508;2023-10-13T08:42:34;17.75;;;8.95;;
76332;SDS011;71254;53.010;6.508;2023-10-13T08:45:04;14.00;;;8.93;;
76332;SDS011;71254;53.010;6.508;2023-10-13T08:47:49;13.77;;;8.73;;
76332;SDS011;71254;53.010;6.508;2023-10-13T08:50:32;13.52;;;8.40;;
76332;SDS011;71254;53.010;6.508;2023-10-13T08:53:25;14.18;;;9.25;;
76332;SDS011;71254;53.010;6.508;2023-10-13T08:56:10;17.98;;;9.88;;
76332;SDS011;71254;53.010;6.508;2023-10-13T09:01:26;16.52;;;9.75;;
76332;SDS011;71254;53.010;6.508;2023-10-13T09:04:17;18.85;;;10.50;;
76332;SDS011;71254;53.010;6.508;2023-10-13T09:06:47;16.52;;;9.90;;
76332;SDS011;71254;53.010;6.508;2023-10-13T09:09:46;17.65;;;9.93;;
76332;SDS011;71254;53.010;6.508;2023-10-13T09:12:12;18.55;;;11.70;;
76332;SDS011;71254;53.010;6.508;2023-10-13T09:14:40;20.08;;;10.75;;
76332;SDS011;71254;53.010;6.508;2023-10-13T09:17:13;16.80;;;10.95;;
76332;SDS011;71254;53.010;6.508;2023-10-13T09:19:48;15.95;;;9.95;;
76332;SDS011;71254;53.010;6.508;2023-10-13T09:22:25;17.95;;;11.77;;
76332;SDS011;71254;53.010;6.508;2023-10-13T09:24:58;15.93;;;10.70;;
76332;SDS011;71254;53.010;6.508;2023-10-13T09:27:27;18.73;;;10.27;;
76332;SDS011;71254;53.010;6.508;2023-10-13T09:30:02;14.35;;;10.48;;
76332;SDS011;71254;53.010;6.508;2023-10-13T09:32:35;13.80;;;10.48;;
76332;SDS011;71254;53.010;6.508;2023-10-13T09:35:16;15.18;;;9.57;;
76332;SDS011;71254;53.010;6.508;2023-10-13T09:37:44;25.17;;;9.57;;
76332;SDS011;71254;53.010;6.508;2023-10-13T09:40:16;30.67;;;10.02;;
76332;SDS011;71254;53.010;6.508;2023-10-13T09:42:58;15.18;;;8.45;;
76332;SDS011;71254;53.010;6.508;2023-10-13T09:45:33;11.57;;;8.60;;
76332;SDS011;71254;53.010;6.508;2023-10-13T09:48:09;8.18;;;7.07;;
76332;SDS011;71254;53.010;6.508;2023-10-13T09:50:41;13.10;;;10.07;;
76332;SDS011;71254;53.010;6.508;2023-10-13T09:53:10;11.85;;;7.72;;
76332;SDS011;71254;53.010;6.508;2023-10-13T09:55:40;15.20;;;7.80;;
76332;SDS011;71254;53.010;6.508;2023-10-13T09:58:11;16.50;;;8.65;;
76332;SDS011;71254;53.010;6.508;2023-10-13T10:00:52;16.08;;;8.23;;
76332;SDS011;71254;53.010;6.508;2023-10-13T10:03:47;13.25;;;7.30;;
76332;SDS011;71254;53.010;6.508;2023-10-13T10:06:36;16.83;;;8.57;;
76332;SDS011;71254;53.010;6.508;2023-10-13T10:09:14;14.95;;;7.18;;
76332;SDS011;71254;53.010;6.508;2023-10-13T10:14:22;17.05;;;7.25;;
76332;SDS011;71254;53.010;6.508;2023-10-13T10:17:08;11.82;;;7.18;;
76332;SDS011;71254;53.010;6.508;2023-10-13T10:19:48;15.77;;;7.38;;
76332;SDS011;71254;53.010;6.508;2023-10-13T10:22:24;13.32;;;8.15;;
76332;SDS011;71254;53.010;6.508;2023-10-13T10:25:04;15.13;;;7.25;;
76332;SDS011;71254;53.010;6.508;2023-10-13T10:27:57;13.15;;;7.13;;
76332;SDS011;71254;53.010;6.508;2023-10-13T10:30:24;12.52;;;7.22;;
76332;SDS011;71254;53.010;6.508;2023-10-13T10:32:54;13.95;;;7.03;;
76332;SDS011;71254;53.010;6.508;2023-10-13T10:35:26;12.50;;;6.88;;
76332;SDS011;71254;53.010;6.508;2023-10-13T10:37:58;10.20;;;6.53;;
76332;SDS011;71254;53.010;6.508;2023-10-13T10:40:54;14.90;;;7.20;;
76332;SDS011;71254;53.010;6.508;2023-10-13T10:46:28;13.93;;;7.03;;
76332;SDS011;71254;53.010;6.508;2023-10-13T10:48:56;14.00;;;7.03;;
76332;SDS011;71254;53.010;6.508;2023-10-13T10:51:26;10.85;;;6.32;;
76332;SDS011;71254;53.010;6.508;2023-10-13T10:54:00;11.55;;;6.40;;
76332;SDS011;71254;53.010;6.508;2023-10-13T10:56:38;13.45;;;7.93;;
76332;SDS011;71254;53.010;6.508;2023-10-13T10:59:05;11.80;;;6.65;;
76332;SDS011;71254;53.010;6.508;2023-10-13T11:01:43;10.27;;;6.18;;
76332;SDS011;71254;53.010;6.508;2023-10-13T11:04:16;11.90;;;6.50;;
76332;SDS011;71254;53.010;6.508;2023-10-13T11:06:48;12.40;;;6.30;;
76332;SDS011;71254;53.010;6.508;2023-10-13T11:09:30;16.02;;;5.90;;
76332;SDS011;71254;53.010;6.508;2023-10-13T11:14:31;14.27;;;6.35;;
76332;SDS011;71254;53.010;6.508;2023-10-13T11:16:58;12.85;;;5.93;;
76332;SDS011;71254;53.010;6.508;2023-10-13T11:19:34;14.38;;;6.57;;
76332;SDS011;71254;53.010;6.508;2023-10-13T11:22:10;12.07;;;6.97;;
76332;SDS011;71254;53.010;6.508;2023-10-13T11:24:40;11.63;;;6.47;;
76332;SDS011;71254;53.010;6.508;2023-10-13T11:27:16;11.32;;;6.55;;
76332;SDS011;71254;53.010;6.508;2023-10-13T11:29:46;14.40;;;6.20;;
76332;SDS011;71254;53.010;6.508;2023-10-13T11:32:17;13.57;;;6.35;;
76332;SDS011;71254;53.010;6.508;2023-10-13T11:34:45;13.02;;;6.32;;
76332;SDS011;71254;53.010;6.508;2023-10-13T11:37:17;14.18;;;6.82;;
76332;SDS011;71254;53.010;6.508;2023-10-13T11:40:02;13.20;;;6.63;;
76332;SDS011;71254;53.010;6.508;2023-10-13T11:42:37;12.38;;;6.40;;
76332;SDS011;71254;53.010;6.508;2023-10-13T11:45:09;9.93;;;6.43;;
76332;SDS011;71254;53.010;6.508;2023-10-13T11:47:53;12.90;;;7.55;;
76332;SDS011;71254;53.010;6.508;2023-10-13T11:50:25;13.55;;;7.00;;
76332;SDS011;71254;53.010;6.508;2023-10-13T11:53:00;16.45;;;6.63;;
76332;SDS011;71254;53.010;6.508;2023-10-13T11:55:26;15.68;;;6.70;;
76332;SDS011;71254;53.010;6.508;2023-10-13T11:57:52;15.75;;;7.57;;
76332;SDS011;71254;53.010;6.508;2023-10-13T12:00:18;15.52;;;6.80;;
76332;SDS011;71254;53.010;6.508;2023-10-13T12:03:02;15.63;;;6.88;;
76332;SDS011;71254;53.010;6.508;2023-10-13T12:05:46;13.32;;;7.30;;
76332;SDS011;71254;53.010;6.508;2023-10-13T12:08:31;14.90;;;6.85;;
76332;SDS011;71254;53.010;6.508;2023-10-13T12:10:58;15.95;;;7.40;;
76332;SDS011;71254;53.010;6.508;2023-10-13T12:13:46;12.13;;;7.07;;
76332;SDS011;71254;53.010;6.508;2023-10-13T12:16:12;14.73;;;7.13;;
76332;SDS011;71254;53.010;6.508;2023-10-13T12:18:38;15.32;;;7.25;;
76332;SDS011;71254;53.010;6.508;2023-10-13T12:21:09;15.30;;;7.68;;
76332;SDS011;71254;53.010;6.508;2023-10-13T12:23:38;16.15;;;8.25;;
76332;SDS011;71254;53.010;6.508;2023-10-13T12:26:03;16.75;;;8.25;;
76332;SDS011;71254;53.010;6.508;2023-10-13T12:28:44;13.35;;;7.70;;
76332;SDS011;71254;53.010;6.508;2023-10-13T12:31:18;17.42;;;7.90;;
76332;SDS011;71254;53.010;6.508;2023-10-13T12:33:52;14.40;;;8.13;;
76332;SDS011;71254;53.010;6.508;2023-10-13T12:36:18;13.93;;;8.93;;
76332;SDS011;71254;53.010;6.508;2023-10-13T12:38:46;15.57;;;7.88;;
76332;SDS011;71254;53.010;6.508;2023-10-13T12:41:13;16.13;;;7.65;;
76332;SDS011;71254;53.010;6.508;2023-10-13T12:43:58;13.40;;;7.45;;
76332;SDS011;71254;53.010;6.508;2023-10-13T12:46:42;16.10;;;8.48;;
76332;SDS011;71254;53.010;6.508;2023-10-13T12:49:27;14.15;;;8.00;;
76332;SDS011;71254;53.010;6.508;2023-10-13T12:52:15;18.35;;;8.20;;
76332;SDS011;71254;53.010;6.508;2023-10-13T12:54:45;19.60;;;8.02;;
76332;SDS011;71254;53.010;6.508;2023-10-13T12:57:23;17.02;;;8.15;;
76332;SDS011;71254;53.010;6.508;2023-10-13T12:59:53;16.92;;;8.25;;
76332;SDS011;71254;53.010;6.508;2023-10-13T13:02:23;15.30;;;7.70;;
76332;SDS011;71254;53.010;6.508;2023-10-13T13:04:52;16.52;;;8.07;;
76332;SDS011;71254;53.010;6.508;2023-10-13T13:07:31;13.80;;;7.30;;
76332;SDS011;71254;53.010;6.508;2023-10-13T13:10:08;15.38;;;8.32;;
76332;SDS011;71254;53.010;6.508;2023-10-13T13:12:36;12.75;;;8.82;;
76332;SDS011;71254;53.010;6.508;2023-10-13T13:15:02;18.13;;;9.48;;
76332;SDS011;71254;53.010;6.508;2023-10-13T13:17:33;14.52;;;8.45;;
76332;SDS011;71254;53.010;6.508;2023-10-13T13:20:04;16.17;;;8.85;;
76332;SDS011;71254;53.010;6.508;2023-10-13T13:22:35;17.50;;;8.73;;
76332;SDS011;71254;53.010;6.508;2023-10-13T13:25:02;15.50;;;8.73;;
76332;SDS011;71254;53.010;6.508;2023-10-13T13:27:32;18.45;;;9.25;;
76332;SDS011;71254;53.010;6.508;2023-10-13T13:29:58;13.25;;;8.73;;
76332;SDS011;71254;53.010;6.508;2023-10-13T13:32:23;13.40;;;9.15;;
76332;SDS011;71254;53.010;6.508;2023-10-13T13:34:49;17.75;;;9.13;;
76332;SDS011;71254;53.010;6.508;2023-10-13T13:37:32;15.40;;;9.13;;
76332;SDS011;71254;53.010;6.508;2023-10-13T13:39:58;17.00;;;10.25;;
76332;SDS011;71254;53.010;6.508;2023-10-13T13:42:42;16.00;;;9.18;;
76332;SDS011;71254;53.010;6.508;2023-10-13T13:45:15;17.65;;;9.20;;
76332;SDS011;71254;53.010;6.508;2023-10-13T13:47:47;16.48;;;8.77;;
76332;SDS011;71254;53.010;6.508;2023-10-13T13:50:22;18.40;;;9.90;;
76332;SDS011;71254;53.010;6.508;2023-10-13T13:52:53;16.63;;;9.60;;
76332;SDS011;71254;53.010;6.508;2023-10-13T13:55:21;14.38;;;9.20;;
76332;SDS011;71254;53.010;6.508;2023-10-13T13:57:48;18.08;;;9.40;;
76332;SDS011;71254;53.010;6.508;2023-10-13T14:00:16;19.63;;;10.13;;
76332;SDS011;71254;53.010;6.508;2023-10-13T14:02:45;20.02;;;10.45;;
76332;SDS011;71254;53.010;6.508;2023-10-13T14:05:13;22.75;;;10.05;;
76332;SDS011;71254;53.010;6.508;2023-10-13T14:07:45;17.13;;;10.05;;
76332;SDS011;71254;53.010;6.508;2023-10-13T14:10:16;16.15;;;9.13;;
76332;SDS011;71254;53.010;6.508;2023-10-13T14:12:57;17.02;;;9.68;;
76332;SDS011;71254;53.010;6.508;2023-10-13T14:15:32;19.00;;;10.20;;
76332;SDS011;71254;53.010;6.508;2023-10-13T14:18:05;15.30;;;9.80;;
76332;SDS011;71254;53.010;6.508;2023-10-13T14:20:32;16.85;;;9.88;;
76332;SDS011;71254;53.010;6.508;2023-10-13T14:23:04;16.13;;;9.90;;
76332;SDS011;71254;53.010;6.508;2023-10-13T14:25:32;17.60;;;10.02;;
76332;SDS011;71254;53.010;6.508;2023-10-13T14:30:29;15.52;;;9.52;;
76332;SDS011;71254;53.010;6.508;2023-10-13T14:32:56;13.57;;;8.43;;
76332;SDS011;71254;53.010;6.508;2023-10-13T14:35:23;13.85;;;9.57;;
76332;SDS011;71254;53.010;6.508;2023-10-13T14:37:51;17.45;;;9.93;;
76332;SDS011;71254;53.010;6.508;2023-10-13T14:40:19;17.50;;;8.43;;
76332;SDS011;71254;53.010;6.508;2023-10-13T14:42:47;17.48;;;9.60;;
76332;SDS011;71254;53.010;6.508;2023-10-13T14:45:13;14.25;;;9.55;;
76332;SDS011;71254;53.010;6.508;2023-10-13T14:47:41;15.57;;;9.05;;
76332;SDS011;71254;53.010;6.508;2023-10-13T14:50:07;16.55;;;8.77;;
76332;SDS011;71254;53.010;6.508;2023-10-13T14:52:42;17.48;;;9.50;;
76332;SDS011;71254;53.010;6.508;2023-10-13T14:55:08;16.33;;;9.63;;
76332;SDS011;71254;53.010;6.508;2023-10-13T14:57:43;17.65;;;8.48;;
76332;SDS011;71254;53.010;6.508;2023-10-13T15:00:12;15.80;;;8.95;;
76332;SDS011;71254;53.010;6.508;2023-10-13T15:02:39;16.48;;;8.20;;
76332;SDS011;71254;53.010;6.508;2023-10-13T15:05:08;17.30;;;9.45;;
76332;SDS011;71254;53.010;6.508;2023-10-13T15:07:41;15.93;;;9.52;;
76332;SDS011;71254;53.010;6.508;2023-10-13T15:10:10;19.17;;;9.60;;
76332;SDS011;71254;53.010;6.508;2023-10-13T15:12:40;13.63;;;10.10;;
76332;SDS011;71254;53.010;6.508;2023-10-13T15:15:07;18.27;;;11.02;;
76332;SDS011;71254;53.010;6.508;2023-10-13T15:17:38;19.58;;;11.10;;
76332;SDS011;71254;53.010;6.508;2023-10-13T15:20:05;17.77;;;11.05;;
76332;SDS011;71254;53.010;6.508;2023-10-13T15:22:34;18.35;;;11.60;;
76332;SDS011;71254;53.010;6.508;2023-10-13T15:25:01;15.23;;;11.00;;